Time;durP1;ratioP1;P1;durP2;ratioP2;P2;SDS_P1;SDS_P2;PMS_P1;PMS_P2;Temp;Humidity;BMP_temperature;BMP_pressure;BME280_temperature;BME280_humidity;BME280_pressure;Samples;Min_cycle;Max_cycle;Signal;HPM_P1;HPM_P2
2022/01/22 00:01:43;;;;;;;10.13;2.95;;;;;;;;;;5074038;28;20037;-38
2022/01/22 00:04:08;;;;;;;4.00;2.35;;;;;;;;;;5074000;28;20138;-38
2022/01/22 00:06:34;;;;;;;8.50;2.45;;;;;;;;;;5074053;28;20115;-37
2022/01/22 00:08:59;;;;;;;7.55;2.97;;;;;;;;;;5074206;28;20028;-37
2022/01/22 00:11:29;;;;;;;3.67;1.95;;;;;;;;;;5074018;28;20038;-37
2022/01/22 00:16:38;;;;;;;5.80;2.60;;;;;;;;;;5073865;28;20032;-41
2022/01/22 00:19:08;;;;;;;6.22;3.15;;;;;;;;;;5089279;28;20019;-37
2022/01/22 00:21:33;;;;;;;8.90;3.50;;;;;;;;;;5073758;28;20051;-37
2022/01/22 00:24:02;;;;;;;4.35;3.40;;;;;;;;;;5073643;28;20032;-37
2022/01/22 00:26:27;;;;;;;6.85;3.10;;;;;;;;;;5089431;28;20123;-37
2022/01/22 00:28:52;;;;;;;11.45;4.28;;;;;;;;;;5073526;28;20095;-38
2022/01/22 00:31:18;;;;;;;6.90;3.53;;;;;;;;;;5073538;28;20036;-37
2022/01/22 00:33:43;;;;;;;7.43;3.92;;;;;;;;;;5072230;28;20023;-37
2022/01/22 00:36:09;;;;;;;5.82;3.83;;;;;;;;;;5073417;28;20033;-37
2022/01/22 00:38:34;;;;;;;13.55;4.10;;;;;;;;;;5073392;28;20099;-37
2022/01/22 00:41:01;;;;;;;7.15;3.40;;;;;;;;;;5073133;28;20099;-38
2022/01/22 00:43:27;;;;;;;8.77;3.30;;;;;;;;;;5072128;28;20054;-37
2022/01/22 00:45:53;;;;;;;5.65;3.15;;;;;;;;;;5073419;28;20037;-37
2022/01/22 00:48:18;;;;;;;7.13;3.33;;;;;;;;;;5073299;28;20532;-37
2022/01/22 00:50:44;;;;;;;4.05;2.80;;;;;;;;;;5071802;28;20039;-38
2022/01/22 00:53:09;;;;;;;12.38;3.55;;;;;;;;;;5073070;28;20024;-37
2022/01/22 00:55:35;;;;;;;9.07;3.10;;;;;;;;;;5073131;28;20052;-40
2022/01/22 00:58:00;;;;;;;10.50;4.30;;;;;;;;;;5072929;28;20110;-37
2022/01/22 01:00:26;;;;;;;4.63;3.10;;;;;;;;;;5073039;28;20115;-37
2022/01/22 01:02:52;;;;;;;4.85;2.30;;;;;;;;;;5072884;28;20459;-37
2022/01/22 01:05:17;;;;;;;3.38;2.05;;;;;;;;;;5071564;28;20032;-37
2022/01/22 01:07:43;;;;;;;5.18;2.95;;;;;;;;;;5072837;28;20420;-37
2022/01/22 01:10:12;;;;;;;9.70;2.25;;;;;;;;;;5071483;28;20032;-37
2022/01/22 01:12:39;;;;;;;3.00;2.33;;;;;;;;;;5071420;28;20028;-37
2022/01/22 01:34:15;;;;;;;3.78;3.05;;;;;;;;;;5072242;28;20031;-37
2022/01/22 01:36:42;;;;;;;8.48;3.35;;;;;;;;;;5070854;28;20487;-38
2022/01/22 01:39:10;;;;;;;12.10;3.92;;;;;;;;;;5070966;28;20017;-37
2022/01/22 01:41:48;;;;;;;6.72;3.45;;;;;;;;;;5070567;28;20091;-37
2022/01/22 01:44:14;;;;;;;5.85;3.45;;;;;;;;;;5070814;28;20033;-37
2022/01/22 01:46:51;;;;;;;8.75;3.20;;;;;;;;;;5072157;28;20060;-37
2022/01/22 01:49:17;;;;;;;7.18;3.08;;;;;;;;;;5087605;28;20070;-37
2022/01/22 01:51:43;;;;;;;6.68;3.25;;;;;;;;;;5070571;28;20040;-37
2022/01/22 01:59:26;;;;;;;5.28;2.85;;;;;;;;;;5087496;28;20043;-38
2022/01/22 02:01:52;;;;;;;8.57;3.13;;;;;;;;;;5070345;28;20064;-37
2022/01/22 02:04:18;;;;;;;6.03;3.40;;;;;;;;;;5087298;28;20580;-37
2022/01/22 02:06:43;;;;;;;6.45;3.25;;;;;;;;;;5070337;28;20031;-37
2022/01/22 02:09:10;;;;;;;8.80;4.38;;;;;;;;;;5070387;28;20051;-37
2022/01/22 02:11:37;;;;;;;9.55;3.03;;;;;;;;;;5069669;28;20115;-37
2022/01/22 02:25:39;;;;;;;4.55;3.00;;;;;;;;;;5071346;28;20082;-37
2022/01/22 02:28:05;;;;;;;3.65;2.67;;;;;;;;;;5070147;28;20028;-37
2022/01/22 02:30:37;;;;;;;7.20;3.10;;;;;;;;;;5071605;28;20398;-37
2022/01/22 02:33:34;;;;;;;7.80;2.67;;;;;;;;;;5071658;28;20566;-37
2022/01/22 02:36:06;;;;;;;6.50;3.78;;;;;;;;;;5086873;28;20032;-38
2022/01/22 02:38:44;;;;;;;7.60;3.47;;;;;;;;;;5086908;28;20028;-37
2022/01/22 02:41:16;;;;;;;8.30;4.00;;;;;;;;;;5086540;28;20044;-37
2022/01/22 02:43:41;;;;;;;5.53;2.97;;;;;;;;;;5086811;28;20024;-37
2022/01/22 02:46:07;;;;;;;15.20;3.42;;;;;;;;;;5069918;28;20531;-38
2022/01/22 02:48:32;;;;;;;8.05;3.67;;;;;;;;;;5086799;28;20475;-37
2022/01/22 02:50:58;;;;;;;5.82;3.42;;;;;;;;;;5069755;28;20064;-38
2022/01/22 02:53:23;;;;;;;11.55;4.88;;;;;;;;;;5069973;28;20126;-37
2022/01/22 02:55:50;;;;;;;9.05;4.53;;;;;;;;;;5069728;28;20387;-38
2022/01/22 02:58:16;;;;;;;5.13;3.05;;;;;;;;;;5069911;28;20133;-37
2022/01/22 03:00:42;;;;;;;6.03;3.70;;;;;;;;;;5071069;28;20459;-37
2022/01/22 03:03:08;;;;;;;6.65;3.88;;;;;;;;;;5069691;28;20025;-38
2022/01/22 03:05:34;;;;;;;7.97;3.83;;;;;;;;;;5069803;28;20043;-38
2022/01/22 03:08:05;;;;;;;5.35;3.08;;;;;;;;;;5069691;28;20025;-37
2022/01/22 03:10:31;;;;;;;11.45;3.72;;;;;;;;;;5086582;28;20029;-38
2022/01/22 03:18:50;;;;;;;7.68;3.85;;;;;;;;;;5036515;28;20102;-37
2022/01/22 03:21:33;;;;;;;5.43;3.33;;;;;;;;;;5070900;28;20144;-37
2022/01/22 03:29:37;;;;;;;5.05;3.30;;;;;;;;;;5074699;28;20029;-37
2022/01/22 03:32:04;;;;;;;8.00;3.40;;;;;;;;;;5073349;28;20042;-38
2022/01/22 03:34:36;;;;;;;8.43;3.72;;;;;;;;;;5073354;28;20104;-37
2022/01/22 03:37:01;;;;;;;8.23;3.03;;;;;;;;;;5090059;28;20052;-38
2022/01/22 03:39:27;;;;;;;7.15;3.33;;;;;;;;;;5073281;28;20013;-37
2022/01/22 03:41:53;;;;;;;8.60;2.92;;;;;;;;;;5074042;28;20521;-38
2022/01/22 03:44:18;;;;;;;3.53;2.55;;;;;;;;;;5074496;28;20035;-38
2022/01/22 03:46:44;;;;;;;5.10;2.55;;;;;;;;;;5089892;28;20028;-37
2022/01/22 03:49:10;;;;;;;7.07;2.70;;;;;;;;;;5073029;28;20108;-37
2022/01/22 03:51:36;;;;;;;5.00;2.38;;;;;;;;;;5072914;28;20135;-38
2022/01/22 03:54:02;;;;;;;7.68;2.70;;;;;;;;;;5072903;28;20013;-37
2022/01/22 03:56:28;;;;;;;7.85;2.92;;;;;;;;;;5089831;28;20028;-37
2022/01/22 03:59:05;;;;;;;5.38;2.83;;;;;;;;;;5072757;28;20017;-37
2022/01/22 04:04:39;;;;;;;4.25;2.90;;;;;;;;;;5089623;28;20106;-38
2022/01/22 04:09:38;;;;;;;5.30;3.05;;;;;;;;;;5089470;28;20471;-37
2022/01/22 04:12:03;;;;;;;6.60;2.85;;;;;;;;;;5072577;28;20036;-38
2022/01/22 04:14:33;;;;;;;4.72;3.17;;;;;;;;;;5073824;28;20019;-37
2022/01/22 04:25:10;;;;;;;3.30;2.40;;;;;;;;;;5073716;28;20024;-37
2022/01/22 04:27:36;;;;;;;5.95;3.22;;;;;;;;;;5073570;28;20028;-37
2022/01/22 04:30:02;;;;;;;4.32;2.35;;;;;;;;;;5073590;28;20486;-37
2022/01/22 04:32:28;;;;;;;6.45;2.70;;;;;;;;;;5073549;28;20063;-37
2022/01/22 04:34:54;;;;;;;4.07;2.10;;;;;;;;;;5073007;28;20044;-37
2022/01/22 04:37:20;;;;;;;4.13;3.00;;;;;;;;;;5073640;28;20375;-38
2022/01/22 04:39:47;;;;;;;6.10;3.83;;;;;;;;;;5073511;28;20033;-37
2022/01/22 04:42:12;;;;;;;6.95;2.90;;;;;;;;;;5071879;28;20064;-38
2022/01/22 04:44:48;;;;;;;5.30;3.13;;;;;;;;;;5072132;28;20391;-37
2022/01/22 04:47:24;;;;;;;9.35;3.70;;;;;;;;;;5073403;28;20036;-37
2022/01/22 04:54:58;;;;;;;8.27;3.28;;;;;;;;;;5088818;28;20040;-37
2022/01/22 04:55:30;;;;;;;6.07;3.00;;;;;;;;;;5071896;28;20475;-37
2022/01/22 04:57:55;;;;;;;6.15;2.70;;;;;;;;;;5072000;28;20077;-37
2022/01/22 05:00:21;;;;;;;3.47;2.67;;;;;;;;;;5073004;28;20047;-37
2022/01/22 05:03:07;;;;;;;9.13;3.30;;;;;;;;;;5041310;28;20459;-37
2022/01/22 05:05:59;;;;;;;6.55;2.72;;;;;;;;;;5070685;28;20410;-37
2022/01/22 05:08:42;;;;;;;5.88;2.30;;;;;;;;;;5071604;28;20040;-38
2022/01/22 05:11:14;;;;;;;4.15;2.85;;;;;;;;;;5071400;28;20391;-37
2022/01/22 05:13:41;;;;;;;7.38;3.35;;;;;;;;;;5071800;28;20038;-37
2022/01/22 05:16:10;;;;;;;6.50;4.10;;;;;;;;;;5071325;28;20020;-37
2022/01/22 05:18:48;;;;;;;7.70;3.03;;;;;;;;;;5088185;28;20043;-38
2022/01/22 05:21:16;;;;;;;6.07;3.10;;;;;;;;;;5071298;28;20044;-37
2022/01/22 05:23:43;;;;;;;5.30;2.70;;;;;;;;;;5071255;28;20025;-37
2022/01/22 05:26:26;;;;;;;5.65;3.17;;;;;;;;;;5072524;28;20028;-38
2022/01/22 05:38:09;;;;;;;5.88;3.28;;;;;;;;;;5072165;28;20058;-37
2022/01/22 05:40:35;;;;;;;6.65;2.58;;;;;;;;;;5072072;28;20036;-37
2022/01/22 05:43:02;;;;;;;6.22;2.78;;;;;;;;;;5070693;28;20056;-37
2022/01/22 05:45:27;;;;;;;4.70;2.95;;;;;;;;;;5069907;28;20021;-37
2022/01/22 05:47:52;;;;;;;5.93;2.20;;;;;;;;;;5072244;28;20035;-37
2022/01/22 05:50:44;;;;;;;6.65;3.40;;;;;;;;;;5071982;28;20074;-37
2022/01/22 05:53:20;;;;;;;4.32;2.65;;;;;;;;;;5072117;28;20382;-37
2022/01/22 06:01:09;;;;;;;4.00;2.30;;;;;;;;;;5087126;28;20033;-37
2022/01/22 06:03:54;;;;;;;3.58;2.40;;;;;;;;;;5070526;28;20050;-38
2022/01/22 06:06:20;;;;;;;5.15;2.70;;;;;;;;;;5070367;28;20028;-38
2022/01/22 06:08:51;;;;;;;5.63;2.58;;;;;;;;;;5070488;28;20446;-37
2022/01/22 06:11:21;;;;;;;5.50;3.03;;;;;;;;;;5070251;28;20510;-37
2022/01/22 06:13:47;;;;;;;4.88;2.53;;;;;;;;;;5070240;28;20544;-37
2022/01/22 06:16:20;;;;;;;14.07;3.25;;;;;;;;;;5070304;28;20032;-38
2022/01/22 06:19:04;;;;;;;5.20;1.58;;;;;;;;;;5071635;28;20521;-37
2022/01/22 06:21:30;;;;;;;3.03;1.92;;;;;;;;;;5070050;28;20123;-37
2022/01/22 06:23:55;;;;;;;5.68;3.20;;;;;;;;;;5070239;28;20070;-37
2022/01/22 06:26:20;;;;;;;7.80;2.67;;;;;;;;;;5071844;28;20024;-37
2022/01/22 06:28:46;;;;;;;5.47;2.60;;;;;;;;;;5070108;28;20111;-37
2022/01/22 06:31:15;;;;;;;4.45;3.00;;;;;;;;;;5070269;28;20035;-38
2022/01/22 06:33:41;;;;;;;5.72;2.55;;;;;;;;;;5070132;28;20457;-37
2022/01/22 06:36:06;;;;;;;10.90;3.08;;;;;;;;;;5086770;28;20039;-37
2022/01/22 06:38:33;;;;;;;6.43;3.05;;;;;;;;;;5070147;28;20024;-37
2022/01/22 06:44:01;;;;;;;4.68;2.40;;;;;;;;;;5071287;28;20082;-37
2022/01/22 06:46:34;;;;;;;3.47;2.42;;;;;;;;;;5070067;28;20495;-37
2022/01/22 06:49:25;;;;;;;7.53;2.63;;;;;;;;;;5069227;28;20044;-37
2022/01/22 06:52:15;;;;;;;4.35;2.70;;;;;;;;;;5069944;28;20405;-37
2022/01/22 06:54:42;;;;;;;6.57;2.35;;;;;;;;;;5086757;28;20115;-37
2022/01/22 06:57:08;;;;;;;7.72;2.17;;;;;;;;;;5071279;28;20375;-38
2022/01/22 06:59:34;;;;;;;3.83;2.85;;;;;;;;;;5074107;28;20039;-37
2022/01/22 07:02:00;;;;;;;7.82;2.65;;;;;;;;;;5073769;28;20039;-37
2022/01/22 07:04:29;;;;;;;4.40;2.28;;;;;;;;;;5073927;28;20390;-37
2022/01/22 07:07:18;;;;;;;13.68;5.72;;;;;;;;;;5046222;28;20127;-37
2022/01/22 07:09:45;;;;;;;13.93;6.13;;;;;;;;;;5090845;28;20402;-37
2022/01/22 07:12:12;;;;;;;7.18;2.90;;;;;;;;;;5073558;28;20024;-39
2022/01/22 07:14:38;;;;;;;11.60;5.03;;;;;;;;;;5075167;28;20078;-38
2022/01/22 07:17:03;;;;;;;7.32;5.10;;;;;;;;;;5073810;28;20021;-38
2022/01/22 07:19:41;;;;;;;10.30;6.25;;;;;;;;;;5073529;28;20028;-37
2022/01/22 07:25:07;;;;;;;8.02;3.83;;;;;;;;;;5090322;28;20103;-41
2022/01/22 07:27:33;;;;;;;8.75;3.80;;;;;;;;;;5073480;28;20513;-37
2022/01/22 07:30:00;;;;;;;4.35;3.92;;;;;;;;;;5073447;28;20024;-37
2022/01/22 07:32:30;;;;;;;11.13;3.08;;;;;;;;;;5090224;28;20055;-37
2022/01/22 07:34:56;;;;;;;6.68;3.05;;;;;;;;;;5074852;28;20047;-37
2022/01/22 07:37:22;;;;;;;5.25;3.00;;;;;;;;;;5073135;28;20413;-38
2022/01/22 07:39:48;;;;;;;5.40;3.17;;;;;;;;;;5090053;28;20475;-37
2022/01/22 07:42:43;;;;;;;3.10;2.08;;;;;;;;;;5057068;28;20054;-37
2022/01/22 07:45:47;;;;;;;4.75;2.40;;;;;;;;;;5012334;28;20081;-37
2022/01/22 07:48:19;;;;;;;4.30;2.90;;;;;;;;;;4995861;28;20033;-37
2022/01/22 07:51:05;;;;;;;3.20;2.53;;;;;;;;;;5052044;28;20036;-37
2022/01/22 07:53:31;;;;;;;6.22;2.70;;;;;;;;;;5074536;28;20031;-37
2022/01/22 07:56:01;;;;;;;3.50;2.85;;;;;;;;;;5056771;28;20032;-37
2022/01/22 07:58:28;;;;;;;8.40;3.58;;;;;;;;;;5072869;28;20029;-37
2022/01/22 08:00:53;;;;;;;9.38;3.70;;;;;;;;;;5072655;28;20033;-37
2022/01/22 08:03:20;;;;;;;9.48;5.40;;;;;;;;;;5073005;28;20078;-37
2022/01/22 08:06:17;;;;;;;5.95;3.75;;;;;;;;;;5073873;28;20023;-38
2022/01/22 08:09:14;;;;;;;9.82;4.00;;;;;;;;;;5073115;28;20036;-37
2022/01/22 08:12:05;;;;;;;4.20;2.58;;;;;;;;;;5072647;28;20490;-37
2022/01/22 08:14:32;;;;;;;5.47;2.88;;;;;;;;;;5072589;28;20620;-40
2022/01/22 08:16:59;;;;;;;4.53;2.35;;;;;;;;;;5072585;28;20028;-37
2022/01/22 08:19:29;;;;;;;4.47;2.42;;;;;;;;;;5072533;28;20024;-37
2022/01/22 08:21:55;;;;;;;7.22;2.90;;;;;;;;;;5089139;28;20067;-37
2022/01/22 08:24:39;;;;;;;4.82;2.85;;;;;;;;;;5074026;28;20475;-37
2022/01/22 08:29:36;;;;;;;5.63;2.53;;;;;;;;;;5089168;28;20055;-37
2022/01/22 08:37:17;;;;;;;2.30;1.55;;;;;;;;;;5089096;28;20475;-37
2022/01/22 08:39:43;;;;;;;4.18;2.28;;;;;;;;;;5073460;28;20078;-37
2022/01/22 08:42:09;;;;;;;5.47;2.42;;;;;;;;;;5088628;28;20058;-37
2022/01/22 08:44:35;;;;;;;3.35;2.08;;;;;;;;;;5072070;28;20028;-37
2022/01/22 08:47:04;;;;;;;4.32;2.25;;;;;;;;;;5088802;28;20035;-37
2022/01/22 08:49:29;;;;;;;5.82;2.42;;;;;;;;;;5072066;28;20024;-37
2022/01/22 08:52:09;;;;;;;4.13;2.33;;;;;;;;;;5088615;28;20039;-37
2022/01/22 08:54:35;;;;;;;2.53;2.03;;;;;;;;;;5073311;28;20032;-37
2022/01/22 08:57:00;;;;;;;2.50;1.67;;;;;;;;;;5073022;28;20077;-37
2022/01/22 08:59:26;;;;;;;4.93;2.13;;;;;;;;;;5088681;28;20390;-38
2022/01/22 09:01:56;;;;;;;3.90;2.30;;;;;;;;;;5071585;28;20097;-37
2022/01/22 09:04:43;;;;;;;6.30;2.42;;;;;;;;;;5071721;28;20039;-37
2022/01/22 09:07:26;;;;;;;5.68;2.22;;;;;;;;;;5073019;28;20086;-38
2022/01/22 09:09:52;;;;;;;2.67;1.80;;;;;;;;;;5072877;28;20032;-37
2022/01/22 09:12:47;;;;;;;4.25;1.88;;;;;;;;;;5000735;28;20040;-37
2022/01/22 09:15:22;;;;;;;4.05;2.72;;;;;;;;;;5088345;28;20064;-37
2022/01/22 09:17:48;;;;;;;2.75;1.80;;;;;;;;;;5071414;28;20025;-37
2022/01/22 09:20:31;;;;;;;7.35;2.60;;;;;;;;;;5070976;28;20055;-38
2022/01/22 09:22:57;;;;;;;3.05;2.67;;;;;;;;;;5071365;28;20059;-37
2022/01/22 09:25:23;;;;;;;3.28;2.13;;;;;;;;;;5071253;28;20058;-38
2022/01/22 09:27:49;;;;;;;7.28;2.78;;;;;;;;;;5072703;28;20024;-37
2022/01/22 09:30:14;;;;;;;5.63;2.78;;;;;;;;;;5071130;28;20028;-38
2022/01/22 09:32:40;;;;;;;5.95;2.75;;;;;;;;;;5072305;28;20028;-38
2022/01/22 09:35:23;;;;;;;6.30;2.55;;;;;;;;;;5071164;28;20069;-37
2022/01/22 09:38:06;;;;;;;6.70;1.93;;;;;;;;;;5087952;28;20068;-38
2022/01/22 09:40:41;;;;;;;3.17;2.00;;;;;;;;;;5071074;28;20292;-38
2022/01/22 09:43:26;;;;;;;1.98;1.73;;;;;;;;;;5072166;28;20055;-37
2022/01/22 09:46:11;;;;;;;3.80;2.25;;;;;;;;;;5072187;28;20158;-38
2022/01/22 09:49:00;;;;;;;2.60;2.05;;;;;;;;;;5087584;28;20036;-37
2022/01/22 09:51:39;;;;;;;4.35;2.03;;;;;;;;;;5070794;28;20055;-38
2022/01/22 09:54:23;;;;;;;2.65;2.25;;;;;;;;;;5072324;28;20132;-37
2022/01/22 09:57:18;;;;;;;3.88;1.95;;;;;;;;;;5058496;28;20033;-37
2022/01/22 09:59:46;;;;;;;2.50;1.40;;;;;;;;;;5072287;28;20044;-38
2022/01/22 10:02:24;;;;;;;2.55;1.85;;;;;;;;;;5070531;28;20044;-38
2022/01/22 10:04:52;;;;;;;5.70;1.60;;;;;;;;;;5087459;28;20028;-38
2022/01/22 10:07:32;;;;;;;2.20;1.65;;;;;;;;;;5070595;28;20402;-38
2022/01/22 10:10:21;;;;;;;5.18;1.98;;;;;;;;;;5065962;28;20044;-37
2022/01/22 10:13:12;;;;;;;3.05;1.52;;;;;;;;;;5048051;28;20032;-38
2022/01/22 10:15:41;;;;;;;5.05;1.70;;;;;;;;;;5071910;28;20051;-38
2022/01/22 10:18:17;;;;;;;5.47;1.33;;;;;;;;;;5070296;28;20194;-37
2022/01/22 10:20:43;;;;;;;5.00;1.60;;;;;;;;;;5071713;28;20048;-37
2022/01/22 10:23:16;;;;;;;8.10;1.92;;;;;;;;;;5071459;28;20031;-38
2022/01/22 10:25:50;;;;;;;3.13;1.80;;;;;;;;;;5071818;28;20036;-37
2022/01/22 10:28:25;;;;;;;4.15;1.83;;;;;;;;;;5071518;28;20033;-37
2022/01/22 10:30:58;;;;;;;3.60;1.48;;;;;;;;;;5071159;28;20064;-37
2022/01/22 10:33:41;;;;;;;4.20;1.38;;;;;;;;;;5070197;28;20474;-37
2022/01/22 10:36:25;;;;;;;3.05;2.05;;;;;;;;;;5071547;28;20039;-38
2022/01/22 10:39:21;;;;;;;6.05;2.00;;;;;;;;;;5071590;28;20513;-37
2022/01/22 10:41:47;;;;;;;2.45;1.70;;;;;;;;;;5071111;28;20091;-38
2022/01/22 10:44:21;;;;;;;4.25;2.20;;;;;;;;;;5071509;28;20060;-37
2022/01/22 10:46:51;;;;;;;6.10;2.15;;;;;;;;;;5071524;28;20413;-37
2022/01/22 10:49:19;;;;;;;7.75;2.85;;;;;;;;;;5071181;28;20024;-37
2022/01/22 10:51:59;;;;;;;3.60;2.20;;;;;;;;;;5071157;28;20094;-38
2022/01/22 10:54:26;;;;;;;5.63;1.40;;;;;;;;;;5071266;28;20528;-38
2022/01/22 10:56:52;;;;;;;3.42;1.98;;;;;;;;;;5071428;28;20044;-38
2022/01/22 10:59:19;;;;;;;5.13;2.05;;;;;;;;;;5071369;28;20169;-37
2022/01/22 11:01:46;;;;;;;6.05;1.45;;;;;;;;;;5071388;28;20433;-38
2022/01/22 11:04:13;;;;;;;3.50;1.77;;;;;;;;;;5071283;28;20056;-38
2022/01/22 11:06:39;;;;;;;3.50;1.73;;;;;;;;;;5071005;28;20021;-38
2022/01/22 11:09:07;;;;;;;8.05;2.20;;;;;;;;;;5070969;28;20040;-38
2022/01/22 11:11:37;;;;;;;3.08;1.42;;;;;;;;;;5071014;28;20024;-37
2022/01/22 11:14:04;;;;;;;5.90;2.17;;;;;;;;;;5070848;28;20155;-37
2022/01/22 11:16:29;;;;;;;5.13;1.67;;;;;;;;;;5071222;28;20020;-37
2022/01/22 11:18:55;;;;;;;3.25;1.75;;;;;;;;;;5071257;28;20032;-37
2022/01/22 11:21:22;;;;;;;3.88;1.92;;;;;;;;;;5070738;28;20028;-37
2022/01/22 11:23:48;;;;;;;2.85;1.70;;;;;;;;;;5070920;28;20033;-37
2022/01/22 11:26:15;;;;;;;7.63;1.98;;;;;;;;;;5070783;28;20067;-37
2022/01/22 11:28:42;;;;;;;8.02;2.15;;;;;;;;;;5071049;28;20120;-37
2022/01/22 11:31:08;;;;;;;4.68;2.15;;;;;;;;;;5070751;28;20016;-37
2022/01/22 11:33:35;;;;;;;2.40;1.75;;;;;;;;;;5070751;28;20036;-37
2022/01/22 11:36:31;;;;;;;2.92;1.63;;;;;;;;;;5070715;28;20082;-37
2022/01/22 11:39:00;;;;;;;10.57;2.63;;;;;;;;;;5061950;28;20070;-37
2022/01/22 11:41:26;;;;;;;3.53;1.90;;;;;;;;;;5070450;28;20044;-37
2022/01/22 11:44:08;;;;;;;5.15;2.00;;;;;;;;;;5073333;28;20024;-38
2022/01/22 11:46:46;;;;;;;4.18;2.10;;;;;;;;;;5074547;28;20094;-37
2022/01/22 11:49:19;;;;;;;6.85;2.05;;;;;;;;;;5074334;28;20029;-37
2022/01/22 11:51:46;;;;;;;6.20;1.77;;;;;;;;;;5074374;28;20034;-37
2022/01/22 11:54:12;;;;;;;4.15;1.65;;;;;;;;;;5074490;28;20024;-37
2022/01/22 11:56:45;;;;;;;4.60;2.38;;;;;;;;;;5074642;28;20390;-37
2022/01/22 11:59:12;;;;;;;4.80;2.45;;;;;;;;;;5074430;28;20378;-37
2022/01/22 12:01:37;;;;;;;5.75;2.25;;;;;;;;;;5074192;28;20025;-38
2022/01/22 12:04:03;;;;;;;8.02;2.45;;;;;;;;;;5073987;28;20025;-37
2022/01/22 12:06:29;;;;;;;4.20;2.17;;;;;;;;;;5074125;28;20029;-37
2022/01/22 12:09:06;;;;;;;4.65;2.17;;;;;;;;;;5074059;28;20038;-37
2022/01/22 12:14:38;;;;;;;6.72;1.92;;;;;;;;;;5073976;28;20037;-38
2022/01/22 12:17:05;;;;;;;4.47;1.25;;;;;;;;;;5074135;28;20025;-38
2022/01/22 12:19:38;;;;;;;6.07;2.42;;;;;;;;;;5073789;28;20021;-37
2022/01/22 12:22:03;;;;;;;;;;;;;;;;;;5074117;28;20138;-38
2022/01/22 12:24:32;;;;;;;4.30;1.55;;;;;;;;;;5073738;28;19958;-37
2022/01/22 12:27:01;;;;;;;3.85;2.05;;;;;;;;;;5073907;28;20055;-37
2022/01/22 12:29:27;;;;;;;5.40;2.70;;;;;;;;;;5073713;28;20028;-38
2022/01/22 12:32:07;;;;;;;4.68;2.08;;;;;;;;;;5073766;28;20498;-37
2022/01/22 12:34:51;;;;;;;9.45;2.15;;;;;;;;;;5073514;28;20037;-37
2022/01/22 12:37:18;;;;;;;2.22;1.25;;;;;;;;;;5073568;28;20036;-38
2022/01/22 12:39:49;;;;;;;4.93;2.00;;;;;;;;;;5073665;28;20020;-37
2022/01/22 12:42:24;;;;;;;3.53;1.77;;;;;;;;;;5073153;28;20063;-38
2022/01/22 12:44:56;;;;;;;8.25;1.88;;;;;;;;;;5073305;28;20414;-37
2022/01/22 12:47:22;;;;;;;1.52;0.95;;;;;;;;;;5073459;28;20154;-37
2022/01/22 12:50:07;;;;;;;5.93;2.35;;;;;;;;;;5073264;28;20048;-37
2022/01/22 12:52:37;;;;;;;4.03;1.88;;;;;;;;;;5073344;28;20487;-38
2022/01/22 12:55:14;;;;;;;4.75;1.90;;;;;;;;;;5088399;28;20394;-38
2022/01/22 12:57:43;;;;;;;10.00;2.03;;;;;;;;;;5073180;28;20028;-38
2022/01/22 13:00:13;;;;;;;2.97;1.52;;;;;;;;;;5073031;28;20029;-38
2022/01/22 13:02:42;;;;;;;3.63;1.50;;;;;;;;;;5073094;28;20504;-38
2022/01/22 13:05:09;;;;;;;3.05;2.13;;;;;;;;;;5073120;28;20031;-38
2022/01/22 13:08:06;;;;;;;2.83;1.27;;;;;;;;;;5072851;28;20122;-38
2022/01/22 13:10:55;;;;;;;3.97;2.28;;;;;;;;;;5073262;28;20039;-38
2022/01/22 13:13:21;;;;;;;5.03;2.10;;;;;;;;;;5072945;28;20033;-37
2022/01/22 13:15:59;;;;;;;3.35;2.13;;;;;;;;;;5073056;28;20029;-37
2022/01/22 13:18:24;;;;;;;3.38;2.00;;;;;;;;;;5072807;28;20032;-37
2022/01/22 13:20:50;;;;;;;3.95;2.28;;;;;;;;;;5072497;28;20036;-37
2022/01/22 13:23:23;;;;;;;7.03;2.47;;;;;;;;;;5072623;28;20024;-38
2022/01/22 13:25:49;;;;;;;4.22;2.65;;;;;;;;;;5072624;28;20033;-37
2022/01/22 13:28:17;;;;;;;2.55;1.83;;;;;;;;;;5072457;28;20536;-37
2022/01/22 13:30:53;;;;;;;4.40;1.40;;;;;;;;;;5072373;28;20028;-37
2022/01/22 13:35:57;;;;;;;4.90;2.20;;;;;;;;;;5072623;28;20027;-37
2022/01/22 13:38:38;;;;;;;5.25;1.73;;;;;;;;;;5088064;28;20036;-37
2022/01/22 13:49:34;;;;;;;3.33;1.17;;;;;;;;;;5072089;28;20044;-37
2022/01/22 13:52:05;;;;;;;1.40;1.05;;;;;;;;;;5072032;28;20016;-37
2022/01/22 13:54:32;;;;;;;8.00;2.13;;;;;;;;;;5072089;28;20060;-38
2022/01/22 13:57:00;;;;;;;2.63;1.65;;;;;;;;;;5071822;28;20024;-38
2022/01/22 13:59:30;;;;;;;3.88;1.88;;;;;;;;;;5072041;28;20108;-37
2022/01/22 14:05:00;;;;;;;4.45;2.20;;;;;;;;;;5087411;28;20548;-37
2022/01/22 14:07:34;;;;;;;5.07;2.08;;;;;;;;;;5070815;28;20390;-37
2022/01/22 14:10:20;;;;;;;1.77;1.60;;;;;;;;;;5071719;28;20025;-39
2022/01/22 14:12:51;;;;;;;4.93;1.92;;;;;;;;;;5071666;28;20364;-37
2022/01/22 14:15:35;;;;;;;6.25;2.08;;;;;;;;;;5071581;28;20040;-37
2022/01/22 14:20:37;;;;;;;4.47;2.63;;;;;;;;;;5071375;28;20067;-38
2022/01/22 14:23:23;;;;;;;4.95;2.03;;;;;;;;;;5070280;28;20016;-37
2022/01/22 14:25:56;;;;;;;5.43;3.42;;;;;;;;;;5064054;28;20041;-37
2022/01/22 14:28:23;;;;;;;8.35;2.67;;;;;;;;;;5071517;28;20029;-38
2022/01/22 14:30:49;;;;;;;3.53;1.75;;;;;;;;;;5071408;28;20020;-37
2022/01/22 14:33:16;;;;;;;4.40;1.42;;;;;;;;;;5071439;28;20636;-37
2022/01/22 14:35:43;;;;;;;4.65;1.92;;;;;;;;;;5071339;28;20103;-38
2022/01/22 14:38:39;;;;;;;7.43;3.08;;;;;;;;;;5071616;28;20040;-38
2022/01/22 14:44:52;;;;;;;6.60;1.52;;;;;;;;;;5071321;28;20493;-37
2022/01/22 14:46:56;;;;;;;5.05;2.25;;;;;;;;;;5062844;28;20045;-37
2022/01/22 14:49:41;;;;;;;2.28;1.38;;;;;;;;;;5071242;28;20032;-37
2022/01/22 14:52:08;;;;;;;4.45;1.67;;;;;;;;;;5071103;28;20036;-38
2022/01/22 14:54:38;;;;;;;3.10;1.95;;;;;;;;;;5071276;28;20028;-38
2022/01/22 14:57:08;;;;;;;2.67;1.88;;;;;;;;;;5071131;28;20032;-38
2022/01/22 14:59:35;;;;;;;3.28;2.05;;;;;;;;;;5071412;28;20036;-37
2022/01/22 15:02:01;;;;;;;2.90;1.90;;;;;;;;;;5071106;28;20126;-37
2022/01/22 15:04:27;;;;;;;2.97;2.10;;;;;;;;;;5071182;28;20025;-38
2022/01/22 15:06:53;;;;;;;9.15;2.03;;;;;;;;;;5071194;28;20020;-38
2022/01/22 15:09:19;;;;;;;3.35;1.70;;;;;;;;;;5070856;28;20027;-38
2022/01/22 15:11:45;;;;;;;4.63;2.85;;;;;;;;;;5071024;28;20038;-41
2022/01/22 15:14:10;;;;;;;3.85;2.13;;;;;;;;;;5070962;28;20028;-37
2022/01/22 15:16:46;;;;;;;5.95;2.63;;;;;;;;;;5070929;28;20238;-38
2022/01/22 15:19:18;;;;;;;3.50;2.00;;;;;;;;;;5074345;28;20068;-38
2022/01/22 15:21:45;;;;;;;3.22;2.17;;;;;;;;;;5073541;28;20048;-38
2022/01/22 15:24:11;;;;;;;8.18;2.83;;;;;;;;;;5074853;28;20116;-41
2022/01/22 15:26:37;;;;;;;7.63;2.42;;;;;;;;;;5074823;28;20056;-37
2022/01/22 15:29:04;;;;;;;6.13;3.05;;;;;;;;;;5074743;28;20025;-38
2022/01/22 15:31:35;;;;;;;5.03;2.75;;;;;;;;;;5074719;28;20067;-38
2022/01/22 15:34:57;;;;;;;3.72;2.38;;;;;;;;;;5074952;28;20032;-37
2022/01/22 15:36:50;;;;;;;7.75;3.08;;;;;;;;;;5065225;28;20038;-38
2022/01/22 15:39:16;;;;;;;4.30;2.47;;;;;;;;;;5074586;28;20024;-38
2022/01/22 15:41:42;;;;;;;6.85;2.65;;;;;;;;;;5074237;28;20051;-38
2022/01/22 15:44:09;;;;;;;6.18;3.13;;;;;;;;;;5074437;28;20032;-37
2022/01/22 15:46:37;;;;;;;12.15;3.13;;;;;;;;;;5074684;28;20055;-38
2022/01/22 15:49:03;;;;;;;6.18;3.08;;;;;;;;;;5074604;28;20504;-38
2022/01/22 15:51:29;;;;;;;4.93;2.67;;;;;;;;;;5074450;28;20028;-38
2022/01/22 15:53:54;;;;;;;5.97;2.90;;;;;;;;;;5074336;28;20374;-39
2022/01/22 15:56:20;;;;;;;6.50;3.30;;;;;;;;;;5074290;28;20028;-38
2022/01/22 15:58:46;;;;;;;5.82;3.17;;;;;;;;;;5074319;28;20017;-37
2022/01/22 16:01:13;;;;;;;8.48;2.10;;;;;;;;;;5072547;28;20036;-37
2022/01/22 16:03:43;;;;;;;6.63;3.28;;;;;;;;;;5074111;28;20481;-38
2022/01/22 16:06:18;;;;;;;11.43;4.72;;;;;;;;;;5074050;28;20530;-37
2022/01/22 16:08:47;;;;;;;11.27;4.80;;;;;;;;;;5074103;28;20029;-37
2022/01/22 16:11:13;;;;;;;8.35;4.88;;;;;;;;;;5073878;28;20123;-38
2022/01/22 16:13:41;;;;;;;20.10;7.20;;;;;;;;;;5074019;28;20028;-37
2022/01/22 16:16:11;;;;;;;8.55;4.20;;;;;;;;;;5072727;28;20067;-37
2022/01/22 16:18:37;;;;;;;11.48;3.80;;;;;;;;;;5073725;28;20043;-37
2022/01/22 16:21:04;;;;;;;13.57;4.35;;;;;;;;;;5073743;28;20036;-38
2022/01/22 16:23:29;;;;;;;5.22;2.65;;;;;;;;;;5073779;28;20391;-38
2022/01/22 16:25:56;;;;;;;10.80;3.50;;;;;;;;;;5073722;28;20028;-38
2022/01/22 16:28:22;;;;;;;7.32;2.83;;;;;;;;;;5073968;28;20085;-38
2022/01/22 16:30:47;;;;;;;8.43;4.55;;;;;;;;;;5072698;28;20107;-38
2022/01/22 16:33:14;;;;;;;4.90;2.78;;;;;;;;;;5073882;28;20100;-38
2022/01/22 16:35:39;;;;;;;5.25;2.55;;;;;;;;;;5073570;28;20056;-38
2022/01/22 16:38:06;;;;;;;13.63;6.38;;;;;;;;;;5073499;28;20118;-37
2022/01/22 16:40:32;;;;;;;5.25;2.97;;;;;;;;;;5073394;28;20032;-38
2022/01/22 16:43:09;;;;;;;3.88;2.08;;;;;;;;;;5073261;28;20044;-37
2022/01/22 16:56:19;;;;;;;10.15;3.08;;;;;;;;;;5073315;28;20058;-37
2022/01/22 16:58:48;;;;;;;4.25;2.42;;;;;;;;;;5073271;28;20035;-38
2022/01/22 17:01:23;;;;;;;3.78;2.08;;;;;;;;;;5073156;28;20032;-38
2022/01/22 17:03:51;;;;;;;3.08;2.28;;;;;;;;;;5073433;28;20462;-37
2022/01/22 17:06:18;;;;;;;3.63;2.55;;;;;;;;;;5073117;28;20465;-37
2022/01/22 17:08:44;;;;;;;9.10;5.20;;;;;;;;;;5073181;28;20020;-38
2022/01/22 17:11:14;;;;;;;3.20;1.88;;;;;;;;;;5072838;28;20147;-37
2022/01/22 17:16:26;;;;;;;7.18;2.47;;;;;;;;;;5073037;28;20040;-38